sensor_id;sensor_type;location;lat;lon;timestamp;P1;durP1;ratioP1;P2;durP2;ratioP2
49972;SDS011;65693;49.798;10.968;2022-12-18T00:02:00;18.92;;;13.10;;
49972;SDS011;65693;49.798;10.968;2022-12-18T00:04:27;20.05;;;13.18;;
49972;SDS011;65693;49.798;10.968;2022-12-18T00:06:53;21.33;;;13.05;;
49972;SDS011;65693;49.798;10.968;2022-12-18T00:09:20;21.50;;;13.57;;
49972;SDS011;65693;49.798;10.968;2022-12-18T00:11:46;20.40;;;13.02;;
49972;SDS011;65693;49.798;10.968;2022-12-18T00:14:13;21.40;;;12.98;;
49972;SDS011;65693;49.798;10.968;2022-12-18T00:16:44;21.10;;;12.60;;
49972;SDS011;65693;49.798;10.968;2022-12-18T00:19:12;23.70;;;13.88;;
49972;SDS011;65693;49.798;10.968;2022-12-18T00:21:39;20.52;;;12.70;;
49972;SDS011;65693;49.798;10.968;2022-12-18T00:24:06;21.23;;;13.73;;
49972;SDS011;65693;49.798;10.968;2022-12-18T00:26:34;20.90;;;12.90;;
49972;SDS011;65693;49.798;10.968;2022-12-18T00:29:03;22.08;;;14.73;;
49972;SDS011;65693;49.798;10.968;2022-12-18T00:31:31;22.10;;;13.70;;
49972;SDS011;65693;49.798;10.968;2022-12-18T00:33:58;22.63;;;13.90;;
49972;SDS011;65693;49.798;10.968;2022-12-18T00:36:26;22.77;;;13.23;;
49972;SDS011;65693;49.798;10.968;2022-12-18T00:38:54;21.25;;;13.10;;
49972;SDS011;65693;49.798;10.968;2022-12-18T00:41:21;24.05;;;14.95;;
49972;SDS011;65693;49.798;10.968;2022-12-18T00:44:07;24.20;;;14.55;;
49972;SDS011;65693;49.798;10.968;2022-12-18T00:46:35;22.73;;;14.20;;
49972;SDS011;65693;49.798;10.968;2022-12-18T00:49:03;20.40;;;13.02;;
49972;SDS011;65693;49.798;10.968;2022-12-18T00:51:30;19.60;;;12.98;;
49972;SDS011;65693;49.798;10.968;2022-12-18T00:53:56;20.98;;;13.23;;
49972;SDS011;65693;49.798;10.968;2022-12-18T00:56:23;22.00;;;14.18;;
49972;SDS011;65693;49.798;10.968;2022-12-18T00:58:50;23.27;;;14.13;;
49972;SDS011;65693;49.798;10.968;2022-12-18T01:01:17;23.17;;;14.75;;
49972;SDS011;65693;49.798;10.968;2022-12-18T01:03:43;21.90;;;13.70;;
49972;SDS011;65693;49.798;10.968;2022-12-18T01:06:13;23.33;;;14.00;;
49972;SDS011;65693;49.798;10.968;2022-12-18T01:08:41;24.90;;;14.80;;
49972;SDS011;65693;49.798;10.968;2022-12-18T01:11:08;21.25;;;13.77;;
49972;SDS011;65693;49.798;10.968;2022-12-18T01:13:35;22.95;;;14.25;;
49972;SDS011;65693;49.798;10.968;2022-12-18T01:16:02;23.20;;;14.05;;
49972;SDS011;65693;49.798;10.968;2022-12-18T01:18:29;23.52;;;14.02;;
49972;SDS011;65693;49.798;10.968;2022-12-18T01:20:55;22.40;;;13.70;;
49972;SDS011;65693;49.798;10.968;2022-12-18T01:23:23;21.42;;;13.88;;
49972;SDS011;65693;49.798;10.968;2022-12-18T01:25:50;21.60;;;13.55;;
49972;SDS011;65693;49.798;10.968;2022-12-18T01:28:16;24.40;;;14.43;;
49972;SDS011;65693;49.798;10.968;2022-12-18T01:30:43;22.52;;;13.55;;
49972;SDS011;65693;49.798;10.968;2022-12-18T01:33:09;21.05;;;13.32;;
49972;SDS011;65693;49.798;10.968;2022-12-18T01:35:39;24.70;;;14.40;;
49972;SDS011;65693;49.798;10.968;2022-12-18T01:38:06;23.70;;;15.20;;
49972;SDS011;65693;49.798;10.968;2022-12-18T01:40:34;22.98;;;14.60;;
49972;SDS011;65693;49.798;10.968;2022-12-18T01:43:01;22.00;;;14.82;;
49972;SDS011;65693;49.798;10.968;2022-12-18T01:45:28;24.17;;;14.50;;
49972;SDS011;65693;49.798;10.968;2022-12-18T01:47:57;24.38;;;14.18;;
49972;SDS011;65693;49.798;10.968;2022-12-18T01:50:27;21.83;;;13.73;;
49972;SDS011;65693;49.798;10.968;2022-12-18T01:52:58;22.60;;;13.15;;
49972;SDS011;65693;49.798;10.968;2022-12-18T01:55:28;22.88;;;14.30;;
49972;SDS011;65693;49.798;10.968;2022-12-18T01:57:58;21.55;;;14.13;;
49972;SDS011;65693;49.798;10.968;2022-12-18T02:00:26;23.17;;;14.18;;
49972;SDS011;65693;49.798;10.968;2022-12-18T02:02:54;21.48;;;12.80;;
49972;SDS011;65693;49.798;10.968;2022-12-18T02:05:23;23.98;;;14.10;;
49972;SDS011;65693;49.798;10.968;2022-12-18T02:08:00;24.80;;;14.73;;
49972;SDS011;65693;49.798;10.968;2022-12-18T02:10:35;21.77;;;14.32;;
49972;SDS011;65693;49.798;10.968;2022-12-18T02:13:10;23.65;;;14.55;;
49972;SDS011;65693;49.798;10.968;2022-12-18T02:15:46;23.02;;;14.50;;
49972;SDS011;65693;49.798;10.968;2022-12-18T02:18:21;23.05;;;14.48;;
49972;SDS011;65693;49.798;10.968;2022-12-18T02:20:52;24.92;;;15.13;;
49972;SDS011;65693;49.798;10.968;2022-12-18T02:23:24;25.20;;;14.85;;
49972;SDS011;65693;49.798;10.968;2022-12-18T02:26:08;20.38;;;13.48;;
49972;SDS011;65693;49.798;10.968;2022-12-18T02:28:45;25.63;;;14.45;;
49972;SDS011;65693;49.798;10.968;2022-12-18T02:31:16;25.95;;;14.90;;
49972;SDS011;65693;49.798;10.968;2022-12-18T02:33:48;23.02;;;14.85;;
49972;SDS011;65693;49.798;10.968;2022-12-18T02:36:17;21.67;;;14.07;;
49972;SDS011;65693;49.798;10.968;2022-12-18T02:38:46;21.77;;;14.25;;
49972;SDS011;65693;49.798;10.968;2022-12-18T02:41:15;21.58;;;13.52;;
49972;SDS011;65693;49.798;10.968;2022-12-18T02:43:46;24.38;;;14.63;;
49972;SDS011;65693;49.798;10.968;2022-12-18T02:46:27;20.75;;;13.48;;
49972;SDS011;65693;49.798;10.968;2022-12-18T02:48:58;22.05;;;13.90;;
49972;SDS011;65693;49.798;10.968;2022-12-18T02:51:32;23.52;;;13.60;;
49972;SDS011;65693;49.798;10.968;2022-12-18T02:54:08;22.60;;;14.52;;
49972;SDS011;65693;49.798;10.968;2022-12-18T02:56:44;22.58;;;14.32;;
49972;SDS011;65693;49.798;10.968;2022-12-18T02:59:15;19.90;;;13.35;;
49972;SDS011;65693;49.798;10.968;2022-12-18T03:01:48;24.65;;;14.27;;
49972;SDS011;65693;49.798;10.968;2022-12-18T03:04:19;22.98;;;14.40;;
49972;SDS011;65693;49.798;10.968;2022-12-18T03:06:49;22.38;;;14.13;;
49972;SDS011;65693;49.798;10.968;2022-12-18T03:09:19;21.70;;;14.27;;
49972;SDS011;65693;49.798;10.968;2022-12-18T03:11:53;20.48;;;13.73;;
49972;SDS011;65693;49.798;10.968;2022-12-18T03:14:56;21.15;;;13.00;;
49972;SDS011;65693;49.798;10.968;2022-12-18T03:17:27;22.17;;;14.63;;
49972;SDS011;65693;49.798;10.968;2022-12-18T03:19:56;21.92;;;14.32;;
49972;SDS011;65693;49.798;10.968;2022-12-18T03:22:26;25.92;;;13.80;;
49972;SDS011;65693;49.798;10.968;2022-12-18T03:24:56;24.90;;;14.32;;
49972;SDS011;65693;49.798;10.968;2022-12-18T03:27:25;23.65;;;13.95;;
49972;SDS011;65693;49.798;10.968;2022-12-18T03:29:56;22.70;;;13.82;;
49972;SDS011;65693;49.798;10.968;2022-12-18T03:32:33;23.02;;;14.05;;
49972;SDS011;65693;49.798;10.968;2022-12-18T03:35:04;23.88;;;14.95;;
49972;SDS011;65693;49.798;10.968;2022-12-18T03:37:33;21.98;;;13.38;;
49972;SDS011;65693;49.798;10.968;2022-12-18T03:40:00;23.65;;;14.05;;
49972;SDS011;65693;49.798;10.968;2022-12-18T03:42:28;22.58;;;14.88;;
49972;SDS011;65693;49.798;10.968;2022-12-18T03:45:00;21.60;;;13.60;;
49972;SDS011;65693;49.798;10.968;2022-12-18T03:47:35;21.77;;;12.82;;
49972;SDS011;65693;49.798;10.968;2022-12-18T03:50:10;23.63;;;14.13;;
49972;SDS011;65693;49.798;10.968;2022-12-18T03:52:41;21.95;;;13.02;;
49972;SDS011;65693;49.798;10.968;2022-12-18T03:55:11;21.08;;;13.27;;
49972;SDS011;65693;49.798;10.968;2022-12-18T03:57:39;25.67;;;14.45;;
49972;SDS011;65693;49.798;10.968;2022-12-18T04:00:09;22.50;;;13.02;;
49972;SDS011;65693;49.798;10.968;2022-12-18T04:02:39;20.13;;;12.25;;
49972;SDS011;65693;49.798;10.968;2022-12-18T04:05:09;24.63;;;13.10;;
49972;SDS011;65693;49.798;10.968;2022-12-18T04:07:38;22.95;;;13.88;;
49972;SDS011;65693;49.798;10.968;2022-12-18T04:10:06;21.27;;;12.02;;
49972;SDS011;65693;49.798;10.968;2022-12-18T04:12:36;20.38;;;12.75;;
49972;SDS011;65693;49.798;10.968;2022-12-18T04:15:05;21.98;;;13.68;;
49972;SDS011;65693;49.798;10.968;2022-12-18T04:17:33;22.67;;;13.50;;
49972;SDS011;65693;49.798;10.968;2022-12-18T04:19:59;23.60;;;13.82;;
49972;SDS011;65693;49.798;10.968;2022-12-18T04:22:25;20.80;;;13.50;;
49972;SDS011;65693;49.798;10.968;2022-12-18T04:24:52;21.17;;;13.32;;
49972;SDS011;65693;49.798;10.968;2022-12-18T04:27:18;22.17;;;13.45;;
49972;SDS011;65693;49.798;10.968;2022-12-18T04:29:45;22.42;;;13.00;;
49972;SDS011;65693;49.798;10.968;2022-12-18T04:32:13;25.55;;;14.23;;
49972;SDS011;65693;49.798;10.968;2022-12-18T04:34:39;20.05;;;13.10;;
49972;SDS011;65693;49.798;10.968;2022-12-18T04:37:06;22.35;;;12.88;;
49972;SDS011;65693;49.798;10.968;2022-12-18T04:39:32;21.45;;;13.07;;
49972;SDS011;65693;49.798;10.968;2022-12-18T04:42:00;20.65;;;13.45;;
49972;SDS011;65693;49.798;10.968;2022-12-18T04:44:27;19.20;;;12.00;;
49972;SDS011;65693;49.798;10.968;2022-12-18T04:46:53;21.38;;;13.18;;
49972;SDS011;65693;49.798;10.968;2022-12-18T04:49:22;19.90;;;13.52;;
49972;SDS011;65693;49.798;10.968;2022-12-18T04:51:48;20.83;;;12.88;;
49972;SDS011;65693;49.798;10.968;2022-12-18T04:54:15;18.90;;;12.38;;
49972;SDS011;65693;49.798;10.968;2022-12-18T04:56:41;18.65;;;11.38;;
49972;SDS011;65693;49.798;10.968;2022-12-18T04:59:08;20.02;;;12.60;;
49972;SDS011;65693;49.798;10.968;2022-12-18T05:01:34;18.73;;;12.00;;
49972;SDS011;65693;49.798;10.968;2022-12-18T05:04:01;20.17;;;12.60;;
49972;SDS011;65693;49.798;10.968;2022-12-18T05:06:29;19.63;;;12.65;;
49972;SDS011;65693;49.798;10.968;2022-12-18T05:08:55;21.30;;;12.30;;
49972;SDS011;65693;49.798;10.968;2022-12-18T05:11:22;20.27;;;11.57;;
49972;SDS011;65693;49.798;10.968;2022-12-18T05:13:48;20.83;;;12.20;;
49972;SDS011;65693;49.798;10.968;2022-12-18T05:16:15;19.70;;;11.95;;
49972;SDS011;65693;49.798;10.968;2022-12-18T05:18:41;18.45;;;11.45;;
49972;SDS011;65693;49.798;10.968;2022-12-18T05:21:08;20.92;;;12.32;;
49972;SDS011;65693;49.798;10.968;2022-12-18T05:23:36;19.50;;;12.15;;
49972;SDS011;65693;49.798;10.968;2022-12-18T05:26:03;18.77;;;11.35;;
49972;SDS011;65693;49.798;10.968;2022-12-18T05:28:33;20.58;;;12.80;;
49972;SDS011;65693;49.798;10.968;2022-12-18T05:31:01;19.10;;;11.68;;
49972;SDS011;65693;49.798;10.968;2022-12-18T05:33:30;18.95;;;12.32;;
49972;SDS011;65693;49.798;10.968;2022-12-18T05:35:58;17.13;;;11.20;;
49972;SDS011;65693;49.798;10.968;2022-12-18T05:38:30;21.77;;;12.20;;
49972;SDS011;65693;49.798;10.968;2022-12-18T05:40:58;19.52;;;11.63;;
49972;SDS011;65693;49.798;10.968;2022-12-18T05:43:25;18.88;;;11.35;;
49972;SDS011;65693;49.798;10.968;2022-12-18T05:45:53;20.85;;;12.07;;
49972;SDS011;65693;49.798;10.968;2022-12-18T05:48:20;19.05;;;11.73;;
49972;SDS011;65693;49.798;10.968;2022-12-18T05:50:48;19.52;;;11.57;;
49972;SDS011;65693;49.798;10.968;2022-12-18T05:53:16;19.27;;;12.85;;
49972;SDS011;65693;49.798;10.968;2022-12-18T05:55:44;19.73;;;12.40;;
49972;SDS011;65693;49.798;10.968;2022-12-18T05:58:12;18.67;;;11.65;;
49972;SDS011;65693;49.798;10.968;2022-12-18T06:00:40;18.63;;;12.50;;
49972;SDS011;65693;49.798;10.968;2022-12-18T06:03:08;19.38;;;11.75;;
49972;SDS011;65693;49.798;10.968;2022-12-18T06:05:36;19.17;;;11.80;;
49972;SDS011;65693;49.798;10.968;2022-12-18T06:08:04;20.35;;;11.75;;
49972;SDS011;65693;49.798;10.968;2022-12-18T06:10:31;18.05;;;11.95;;
49972;SDS011;65693;49.798;10.968;2022-12-18T06:12:57;17.77;;;11.75;;
49972;SDS011;65693;49.798;10.968;2022-12-18T06:15:25;18.58;;;11.52;;
49972;SDS011;65693;49.798;10.968;2022-12-18T06:17:52;18.17;;;11.75;;
49972;SDS011;65693;49.798;10.968;2022-12-18T06:20:18;20.00;;;12.43;;
49972;SDS011;65693;49.798;10.968;2022-12-18T06:22:45;19.50;;;11.82;;
49972;SDS011;65693;49.798;10.968;2022-12-18T06:25:11;18.27;;;12.13;;
49972;SDS011;65693;49.798;10.968;2022-12-18T06:27:38;18.20;;;11.70;;
49972;SDS011;65693;49.798;10.968;2022-12-18T06:30:05;21.50;;;12.55;;
49972;SDS011;65693;49.798;10.968;2022-12-18T06:32:34;20.48;;;11.73;;
49972;SDS011;65693;49.798;10.968;2022-12-18T06:35:00;17.95;;;10.95;;
49972;SDS011;65693;49.798;10.968;2022-12-18T06:37:27;19.48;;;12.57;;
49972;SDS011;65693;49.798;10.968;2022-12-18T06:39:53;20.92;;;11.82;;
49972;SDS011;65693;49.798;10.968;2022-12-18T06:42:21;20.25;;;11.88;;
49972;SDS011;65693;49.798;10.968;2022-12-18T06:44:48;20.60;;;12.25;;
49972;SDS011;65693;49.798;10.968;2022-12-18T06:47:14;22.25;;;12.43;;
49972;SDS011;65693;49.798;10.968;2022-12-18T06:49:42;21.52;;;12.93;;
49972;SDS011;65693;49.798;10.968;2022-12-18T06:52:09;18.40;;;11.73;;
49972;SDS011;65693;49.798;10.968;2022-12-18T06:54:35;17.27;;;11.13;;
49972;SDS011;65693;49.798;10.968;2022-12-18T06:57:02;17.73;;;10.90;;
49972;SDS011;65693;49.798;10.968;2022-12-18T06:59:28;19.20;;;11.93;;
49972;SDS011;65693;49.798;10.968;2022-12-18T07:01:55;20.88;;;13.32;;
49972;SDS011;65693;49.798;10.968;2022-12-18T07:04:21;20.50;;;12.38;;
49972;SDS011;65693;49.798;10.968;2022-12-18T07:06:49;21.20;;;11.95;;
49972;SDS011;65693;49.798;10.968;2022-12-18T07:09:16;21.45;;;12.45;;
49972;SDS011;65693;49.798;10.968;2022-12-18T07:11:42;20.55;;;11.57;;
49972;SDS011;65693;49.798;10.968;2022-12-18T07:14:09;18.73;;;11.48;;
49972;SDS011;65693;49.798;10.968;2022-12-18T07:16:35;23.25;;;11.63;;
49972;SDS011;65693;49.798;10.968;2022-12-18T07:19:02;19.52;;;11.75;;
49972;SDS011;65693;49.798;10.968;2022-12-18T07:21:28;17.65;;;11.25;;
49972;SDS011;65693;49.798;10.968;2022-12-18T07:23:56;17.60;;;11.70;;
49972;SDS011;65693;49.798;10.968;2022-12-18T07:26:22;19.52;;;11.82;;
49972;SDS011;65693;49.798;10.968;2022-12-18T07:28:49;18.63;;;11.70;;
49972;SDS011;65693;49.798;10.968;2022-12-18T07:31:20;18.02;;;10.88;;
49972;SDS011;65693;49.798;10.968;2022-12-18T07:33:47;20.88;;;11.55;;
49972;SDS011;65693;49.798;10.968;2022-12-18T07:36:14;17.02;;;10.93;;
49972;SDS011;65693;49.798;10.968;2022-12-18T07:38:40;22.25;;;12.90;;
49972;SDS011;65693;49.798;10.968;2022-12-18T07:41:09;25.23;;;12.70;;
49972;SDS011;65693;49.798;10.968;2022-12-18T07:43:37;21.48;;;11.98;;
49972;SDS011;65693;49.798;10.968;2022-12-18T07:46:05;21.45;;;11.40;;
49972;SDS011;65693;49.798;10.968;2022-12-18T07:48:31;21.25;;;11.43;;
49972;SDS011;65693;49.798;10.968;2022-12-18T07:50:59;24.60;;;13.75;;
49972;SDS011;65693;49.798;10.968;2022-12-18T07:53:26;23.42;;;12.90;;
49972;SDS011;65693;49.798;10.968;2022-12-18T07:55:54;26.98;;;13.57;;
49972;SDS011;65693;49.798;10.968;2022-12-18T07:58:23;26.25;;;13.90;;
49972;SDS011;65693;49.798;10.968;2022-12-18T08:00:49;24.38;;;13.27;;
49972;SDS011;65693;49.798;10.968;2022-12-18T08:03:17;22.10;;;13.25;;
49972;SDS011;65693;49.798;10.968;2022-12-18T08:05:43;24.65;;;13.07;;
49972;SDS011;65693;49.798;10.968;2022-12-18T08:08:10;24.05;;;12.95;;
49972;SDS011;65693;49.798;10.968;2022-12-18T08:10:37;24.50;;;12.90;;
49972;SDS011;65693;49.798;10.968;2022-12-18T08:13:03;21.98;;;13.15;;
49972;SDS011;65693;49.798;10.968;2022-12-18T08:15:31;22.45;;;12.43;;
49972;SDS011;65693;49.798;10.968;2022-12-18T08:17:58;25.13;;;12.75;;
49972;SDS011;65693;49.798;10.968;2022-12-18T08:20:24;21.42;;;12.57;;
49972;SDS011;65693;49.798;10.968;2022-12-18T08:22:51;20.83;;;12.02;;
49972;SDS011;65693;49.798;10.968;2022-12-18T08:25:17;22.20;;;12.52;;
49972;SDS011;65693;49.798;10.968;2022-12-18T08:27:44;21.17;;;12.23;;
49972;SDS011;65693;49.798;10.968;2022-12-18T08:30:10;22.50;;;12.98;;
49972;SDS011;65693;49.798;10.968;2022-12-18T08:32:39;22.30;;;12.20;;
49972;SDS011;65693;49.798;10.968;2022-12-18T08:35:05;24.73;;;13.38;;
49972;SDS011;65693;49.798;10.968;2022-12-18T08:37:33;21.17;;;11.45;;
49972;SDS011;65693;49.798;10.968;2022-12-18T08:39:59;25.95;;;13.57;;
49972;SDS011;65693;49.798;10.968;2022-12-18T08:42:26;24.38;;;13.50;;
49972;SDS011;65693;49.798;10.968;2022-12-18T08:45:10;25.38;;;14.15;;
49972;SDS011;65693;49.798;10.968;2022-12-18T08:47:36;24.20;;;13.05;;
49972;SDS011;65693;49.798;10.968;2022-12-18T08:50:05;22.05;;;13.70;;
49972;SDS011;65693;49.798;10.968;2022-12-18T08:52:32;22.50;;;12.48;;
49972;SDS011;65693;49.798;10.968;2022-12-18T08:54:58;24.55;;;13.63;;
49972;SDS011;65693;49.798;10.968;2022-12-18T08:57:25;23.17;;;12.60;;
49972;SDS011;65693;49.798;10.968;2022-12-18T08:59:51;25.48;;;13.63;;
49972;SDS011;65693;49.798;10.968;2022-12-18T09:02:18;25.30;;;13.25;;
49972;SDS011;65693;49.798;10.968;2022-12-18T09:04:47;24.35;;;13.77;;
49972;SDS011;65693;49.798;10.968;2022-12-18T09:07:13;24.13;;;13.85;;
49972;SDS011;65693;49.798;10.968;2022-12-18T09:09:40;25.05;;;14.55;;
49972;SDS011;65693;49.798;10.968;2022-12-18T09:12:06;24.42;;;13.38;;
49972;SDS011;65693;49.798;10.968;2022-12-18T09:14:33;21.92;;;12.90;;
49972;SDS011;65693;49.798;10.968;2022-12-18T09:17:00;24.48;;;14.90;;
49972;SDS011;65693;49.798;10.968;2022-12-18T09:19:26;22.75;;;14.13;;
49972;SDS011;65693;49.798;10.968;2022-12-18T09:21:54;24.35;;;13.43;;
49972;SDS011;65693;49.798;10.968;2022-12-18T09:24:21;24.33;;;13.48;;
49972;SDS011;65693;49.798;10.968;2022-12-18T09:26:47;27.45;;;15.82;;
49972;SDS011;65693;49.798;10.968;2022-12-18T09:29:14;24.33;;;14.35;;
49972;SDS011;65693;49.798;10.968;2022-12-18T09:31:41;23.58;;;14.52;;
49972;SDS011;65693;49.798;10.968;2022-12-18T09:34:07;24.42;;;14.02;;
49972;SDS011;65693;49.798;10.968;2022-12-18T09:36:33;25.60;;;14.82;;
49972;SDS011;65693;49.798;10.968;2022-12-18T09:39:02;23.35;;;14.30;;
49972;SDS011;65693;49.798;10.968;2022-12-18T09:44:17;26.38;;;15.23;;
49972;SDS011;65693;49.798;10.968;2022-12-18T09:46:52;25.20;;;15.15;;
49972;SDS011;65693;49.798;10.968;2022-12-18T09:49:25;24.05;;;14.93;;
49972;SDS011;65693;49.798;10.968;2022-12-18T09:51:56;26.33;;;14.95;;
49972;SDS011;65693;49.798;10.968;2022-12-18T09:54:29;25.27;;;14.93;;
49972;SDS011;65693;49.798;10.968;2022-12-18T09:57:00;23.55;;;13.90;;
49972;SDS011;65693;49.798;10.968;2022-12-18T09:59:33;23.55;;;14.80;;
49972;SDS011;65693;49.798;10.968;2022-12-18T10:02:11;26.45;;;14.98;;
49972;SDS011;65693;49.798;10.968;2022-12-18T10:04:41;24.67;;;13.45;;
49972;SDS011;65693;49.798;10.968;2022-12-18T10:07:08;24.60;;;13.68;;
49972;SDS011;65693;49.798;10.968;2022-12-18T10:09:46;24.60;;;14.23;;
49972;SDS011;65693;49.798;10.968;2022-12-18T10:12:23;24.13;;;14.15;;
49972;SDS011;65693;49.798;10.968;2022-12-18T10:14:59;25.17;;;13.35;;
49972;SDS011;65693;49.798;10.968;2022-12-18T10:17:35;26.77;;;15.18;;
49972;SDS011;65693;49.798;10.968;2022-12-18T10:20:13;23.50;;;15.00;;
49972;SDS011;65693;49.798;10.968;2022-12-18T10:22:48;21.67;;;13.73;;
49972;SDS011;65693;49.798;10.968;2022-12-18T10:25:25;22.33;;;13.75;;
49972;SDS011;65693;49.798;10.968;2022-12-18T10:27:58;23.02;;;13.40;;
49972;SDS011;65693;49.798;10.968;2022-12-18T10:30:33;23.02;;;13.45;;
49972;SDS011;65693;49.798;10.968;2022-12-18T10:33:00;21.67;;;13.10;;
49972;SDS011;65693;49.798;10.968;2022-12-18T10:35:26;23.42;;;14.00;;
49972;SDS011;65693;49.798;10.968;2022-12-18T10:38:01;22.33;;;13.98;;
49972;SDS011;65693;49.798;10.968;2022-12-18T10:40:30;23.27;;;13.75;;
49972;SDS011;65693;49.798;10.968;2022-12-18T10:43:03;22.52;;;12.80;;
49972;SDS011;65693;49.798;10.968;2022-12-18T10:45:30;23.88;;;13.75;;
49972;SDS011;65693;49.798;10.968;2022-12-18T10:47:57;22.40;;;13.38;;
49972;SDS011;65693;49.798;10.968;2022-12-18T10:50:24;21.17;;;12.50;;
49972;SDS011;65693;49.798;10.968;2022-12-18T10:52:55;22.13;;;12.88;;
49972;SDS011;65693;49.798;10.968;2022-12-18T10:55:23;24.98;;;13.55;;
49972;SDS011;65693;49.798;10.968;2022-12-18T10:57:57;22.42;;;13.00;;
49972;SDS011;65693;49.798;10.968;2022-12-18T11:00:42;24.58;;;13.85;;
49972;SDS011;65693;49.798;10.968;2022-12-18T11:03:17;22.52;;;12.55;;
49972;SDS011;65693;49.798;10.968;2022-12-18T11:06:03;22.15;;;12.93;;
49972;SDS011;65693;49.798;10.968;2022-12-18T11:08:32;20.80;;;12.40;;
49972;SDS011;65693;49.798;10.968;2022-12-18T11:10:58;25.80;;;13.48;;
49972;SDS011;65693;49.798;10.968;2022-12-18T11:13:27;23.75;;;12.73;;
49972;SDS011;65693;49.798;10.968;2022-12-18T11:15:55;20.65;;;13.35;;
49972;SDS011;65693;49.798;10.968;2022-12-18T11:18:23;22.02;;;13.38;;
49972;SDS011;65693;49.798;10.968;2022-12-18T11:20:53;22.80;;;13.27;;
49972;SDS011;65693;49.798;10.968;2022-12-18T11:23:22;20.70;;;12.48;;
49972;SDS011;65693;49.798;10.968;2022-12-18T11:25:53;21.45;;;12.43;;
49972;SDS011;65693;49.798;10.968;2022-12-18T11:28:28;18.85;;;12.57;;
49972;SDS011;65693;49.798;10.968;2022-12-18T11:31:09;20.17;;;11.95;;
49972;SDS011;65693;49.798;10.968;2022-12-18T11:33:43;21.27;;;12.52;;
49972;SDS011;65693;49.798;10.968;2022-12-18T11:36:14;22.63;;;13.43;;
49972;SDS011;65693;49.798;10.968;2022-12-18T11:38:41;20.48;;;12.93;;
49972;SDS011;65693;49.798;10.968;2022-12-18T11:41:13;20.60;;;12.20;;
49972;SDS011;65693;49.798;10.968;2022-12-18T11:43:48;20.13;;;12.00;;
49972;SDS011;65693;49.798;10.968;2022-12-18T11:46:22;23.20;;;13.15;;
49972;SDS011;65693;49.798;10.968;2022-12-18T11:48:54;21.08;;;13.05;;
49972;SDS011;65693;49.798;10.968;2022-12-18T11:51:28;22.58;;;12.75;;
49972;SDS011;65693;49.798;10.968;2022-12-18T11:54:00;20.95;;;13.25;;
49972;SDS011;65693;49.798;10.968;2022-12-18T11:56:30;23.83;;;13.00;;
49972;SDS011;65693;49.798;10.968;2022-12-18T11:59:04;19.30;;;12.32;;
49972;SDS011;65693;49.798;10.968;2022-12-18T12:01:44;23.23;;;12.05;;
49972;SDS011;65693;49.798;10.968;2022-12-18T12:04:23;23.52;;;12.50;;
49972;SDS011;65693;49.798;10.968;2022-12-18T12:07:03;20.73;;;12.50;;
49972;SDS011;65693;49.798;10.968;2022-12-18T12:09:40;22.20;;;12.23;;
49972;SDS011;65693;49.798;10.968;2022-12-18T12:12:17;23.30;;;13.18;;
49972;SDS011;65693;49.798;10.968;2022-12-18T12:15:13;22.77;;;11.93;;
49972;SDS011;65693;49.798;10.968;2022-12-18T12:17:50;21.58;;;12.20;;
49972;SDS011;65693;49.798;10.968;2022-12-18T12:20:24;20.85;;;11.88;;
49972;SDS011;65693;49.798;10.968;2022-12-18T12:23:03;17.40;;;11.70;;
49972;SDS011;65693;49.798;10.968;2022-12-18T12:25:39;19.80;;;11.80;;
49972;SDS011;65693;49.798;10.968;2022-12-18T12:28:15;20.00;;;11.90;;
49972;SDS011;65693;49.798;10.968;2022-12-18T12:31:05;19.00;;;11.18;;
49972;SDS011;65693;49.798;10.968;2022-12-18T12:33:40;22.33;;;11.43;;
49972;SDS011;65693;49.798;10.968;2022-12-18T12:36:17;18.88;;;11.80;;
49972;SDS011;65693;49.798;10.968;2022-12-18T12:38:53;20.00;;;11.43;;
49972;SDS011;65693;49.798;10.968;2022-12-18T12:41:25;19.98;;;11.70;;
49972;SDS011;65693;49.798;10.968;2022-12-18T12:44:13;20.42;;;11.40;;
49972;SDS011;65693;49.798;10.968;2022-12-18T12:46:43;18.95;;;11.40;;
49972;SDS011;65693;49.798;10.968;2022-12-18T12:49:11;17.58;;;10.82;;
49972;SDS011;65693;49.798;10.968;2022-12-18T12:51:41;19.83;;;11.10;;
49972;SDS011;65693;49.798;10.968;2022-12-18T12:54:11;18.33;;;11.02;;
49972;SDS011;65693;49.798;10.968;2022-12-18T12:56:43;19.95;;;11.50;;
49972;SDS011;65693;49.798;10.968;2022-12-18T12:59:18;15.63;;;10.30;;
49972;SDS011;65693;49.798;10.968;2022-12-18T13:01:54;20.10;;;10.88;;
49972;SDS011;65693;49.798;10.968;2022-12-18T13:04:26;19.08;;;11.55;;
49972;SDS011;65693;49.798;10.968;2022-12-18T13:07:00;19.20;;;12.05;;
49972;SDS011;65693;49.798;10.968;2022-12-18T13:09:32;18.38;;;10.77;;
49972;SDS011;65693;49.798;10.968;2022-12-18T13:12:01;18.02;;;10.63;;
49972;SDS011;65693;49.798;10.968;2022-12-18T13:14:47;19.85;;;12.32;;
49972;SDS011;65693;49.798;10.968;2022-12-18T13:17:21;17.92;;;11.57;;
49972;SDS011;65693;49.798;10.968;2022-12-18T13:20:02;17.60;;;10.68;;
49972;SDS011;65693;49.798;10.968;2022-12-18T13:22:34;17.70;;;10.20;;
49972;SDS011;65693;49.798;10.968;2022-12-18T13:25:01;19.40;;;11.27;;
49972;SDS011;65693;49.798;10.968;2022-12-18T13:30:43;15.95;;;9.85;;
49972;SDS011;65693;49.798;10.968;2022-12-18T13:36:16;18.00;;;10.05;;
49972;SDS011;65693;49.798;10.968;2022-12-18T13:39:11;16.52;;;10.60;;
49972;SDS011;65693;49.798;10.968;2022-12-18T13:41:50;18.40;;;10.20;;
49972;SDS011;65693;49.798;10.968;2022-12-18T13:44:29;18.05;;;10.88;;
49972;SDS011;65693;49.798;10.968;2022-12-18T13:46:58;18.08;;;10.75;;
49972;SDS011;65693;49.798;10.968;2022-12-18T13:49:25;18.27;;;10.50;;
49972;SDS011;65693;49.798;10.968;2022-12-18T13:52:02;17.38;;;10.52;;
49972;SDS011;65693;49.798;10.968;2022-12-18T13:54:40;17.65;;;10.82;;
49972;SDS011;65693;49.798;10.968;2022-12-18T13:57:23;17.25;;;9.82;;
49972;SDS011;65693;49.798;10.968;2022-12-18T13:59:52;16.55;;;9.45;;
49972;SDS011;65693;49.798;10.968;2022-12-18T14:02:20;19.20;;;10.50;;
49972;SDS011;65693;49.798;10.968;2022-12-18T14:04:48;16.95;;;10.57;;
49972;SDS011;65693;49.798;10.968;2022-12-18T14:07:17;16.95;;;10.30;;
49972;SDS011;65693;49.798;10.968;2022-12-18T14:09:46;17.13;;;10.38;;
49972;SDS011;65693;49.798;10.968;2022-12-18T14:12:16;14.98;;;9.52;;
49972;SDS011;65693;49.798;10.968;2022-12-18T14:15:20;14.35;;;8.82;;
49972;SDS011;65693;49.798;10.968;2022-12-18T14:17:53;18.60;;;9.80;;
49972;SDS011;65693;49.798;10.968;2022-12-18T14:20:22;17.35;;;10.27;;
49972;SDS011;65693;49.798;10.968;2022-12-18T14:22:52;17.13;;;9.98;;
49972;SDS011;65693;49.798;10.968;2022-12-18T14:25:19;16.85;;;10.57;;
49972;SDS011;65693;49.798;10.968;2022-12-18T14:27:49;15.90;;;9.00;;
49972;SDS011;65693;49.798;10.968;2022-12-18T14:30:28;16.40;;;10.27;;
49972;SDS011;65693;49.798;10.968;2022-12-18T14:32:59;14.45;;;8.95;;
49972;SDS011;65693;49.798;10.968;2022-12-18T14:35:27;15.05;;;8.77;;